createdAt,value
2023-09-29T00:00:44.121Z,15.76
2023-09-29T00:03:10.936Z,15.90
2023-09-29T00:05:37.546Z,16.02
2023-09-29T00:08:04.326Z,16.07
2023-09-29T00:10:31.151Z,16.03
2023-09-29T00:12:57.529Z,15.90
2023-09-29T00:15:23.951Z,15.78
2023-09-29T00:17:50.688Z,15.82
2023-09-29T00:20:19.974Z,16.02
2023-09-29T00:22:46.924Z,16.06
2023-09-29T00:25:13.332Z,16.09
2023-09-29T00:27:39.792Z,15.98
2023-09-29T00:30:06.885Z,15.96
2023-09-29T00:32:33.354Z,16.02
2023-09-29T00:34:59.871Z,15.92
2023-09-29T00:37:26.777Z,15.97
2023-09-29T00:39:57.015Z,15.94
2023-09-29T00:42:23.455Z,15.76
2023-09-29T00:44:49.931Z,15.61
2023-09-29T00:47:16.908Z,15.63
2023-09-29T00:49:43.628Z,15.68
2023-09-29T00:52:10.609Z,15.69
2023-09-29T00:54:37.487Z,15.51
2023-09-29T00:57:06.900Z,15.46
2023-09-29T00:59:33.524Z,15.60
2023-09-29T01:02:03.239Z,15.53
2023-09-29T01:04:30.902Z,15.49
2023-09-29T01:06:58.018Z,15.39
2023-09-29T01:09:24.462Z,15.39
2023-09-29T01:11:50.919Z,15.36
2023-09-29T01:14:17.327Z,15.37
2023-09-29T01:16:43.799Z,15.39
2023-09-29T01:19:14.596Z,15.51
2023-09-29T01:21:41.243Z,15.64
2023-09-29T01:24:08.461Z,15.74
2023-09-29T01:26:34.922Z,15.79
2023-09-29T01:29:01.295Z,15.83
2023-09-29T01:31:27.903Z,15.71
2023-09-29T01:33:54.459Z,15.69
2023-09-29T01:36:20.977Z,15.61
2023-09-29T01:38:47.496Z,15.69
2023-09-29T01:41:16.989Z,15.55
2023-09-29T01:43:43.390Z,15.45
2023-09-29T01:46:10.614Z,15.52
2023-09-29T01:48:37.558Z,15.43
2023-09-29T01:51:04.080Z,15.26
2023-09-29T01:53:32.155Z,15.35
2023-09-29T01:55:58.605Z,15.34
2023-09-29T01:58:25.410Z,15.37
2023-09-29T02:00:51.789Z,15.09
2023-09-29T02:03:18.320Z,15.17
2023-09-29T02:05:45.080Z,15.13
2023-09-29T02:08:11.474Z,15.23
2023-09-29T02:10:37.968Z,15.21
2023-09-29T02:13:09.028Z,15.19
2023-09-29T02:15:36.201Z,15.19
2023-09-29T02:18:03.234Z,15.34
2023-09-29T02:20:30.237Z,15.45
2023-09-29T02:23:01.656Z,15.51
2023-09-29T02:25:29.362Z,15.55
2023-09-29T02:27:57.745Z,15.45
2023-09-29T02:30:25.724Z,15.37
2023-09-29T02:32:55.379Z,15.43
2023-09-29T02:35:22.154Z,15.50
2023-09-29T02:37:49.158Z,15.61
2023-09-29T02:40:19.240Z,15.61
2023-09-29T02:42:45.830Z,15.71
2023-09-29T02:45:12.610Z,15.73
2023-09-29T02:47:40.813Z,15.72
2023-09-29T02:50:10.146Z,15.70
2023-09-29T02:52:39.072Z,15.63
2023-09-29T02:55:06.774Z,15.71
2023-09-29T02:57:33.162Z,15.71
2023-09-29T02:59:59.632Z,15.78
2023-09-29T03:02:26.322Z,15.72
2023-09-29T03:04:52.716Z,15.76
2023-09-29T03:07:19.091Z,15.75
2023-09-29T03:09:46.366Z,15.78
2023-09-29T03:12:12.916Z,15.73
2023-09-29T03:14:39.371Z,15.80
2023-09-29T03:17:05.753Z,15.71
2023-09-29T03:19:32.221Z,15.71
2023-09-29T03:22:01.811Z,15.81
2023-09-29T03:24:30.532Z,15.77
2023-09-29T03:26:57.674Z,15.70
2023-09-29T03:29:24.723Z,15.65
2023-09-29T03:31:52.157Z,15.61
2023-09-29T03:34:20.248Z,15.58
2023-09-29T03:36:46.785Z,15.47
2023-09-29T03:39:13.212Z,15.44
2023-09-29T03:41:39.651Z,15.44
2023-09-29T03:44:06.122Z,15.47
2023-09-29T03:46:32.534Z,15.54
2023-09-29T03:48:58.944Z,15.77
2023-09-29T03:51:25.537Z,15.73
2023-09-29T03:53:54.000Z,15.86
2023-09-29T03:56:24.098Z,15.92
2023-09-29T03:58:51.324Z,15.98
2023-09-29T04:01:18.227Z,15.98
2023-09-29T04:03:44.721Z,15.88
2023-09-29T04:06:11.369Z,15.84
2023-09-29T04:08:38.200Z,15.89
2023-09-29T04:11:05.140Z,16.02
2023-09-29T04:13:31.959Z,15.99
2023-09-29T04:16:00.160Z,15.98
2023-09-29T04:18:26.586Z,16.00
2023-09-29T04:20:53.261Z,15.99
2023-09-29T04:23:19.776Z,16.07
2023-09-29T04:25:47.410Z,16.10
2023-09-29T04:28:13.956Z,16.10
2023-09-29T04:30:40.498Z,16.00
2023-09-29T04:33:06.936Z,15.99
2023-09-29T04:35:36.082Z,15.96
2023-09-29T04:38:03.145Z,15.96
2023-09-29T04:40:29.805Z,16.08
2023-09-29T04:42:56.241Z,16.09
2023-09-29T04:45:22.710Z,16.10
2023-09-29T04:47:49.188Z,16.13
2023-09-29T04:50:15.656Z,16.09
2023-09-29T04:52:42.196Z,16.12
2023-09-29T04:55:09.359Z,16.11
2023-09-29T04:57:35.848Z,16.05
2023-09-29T05:00:03.118Z,16.09
2023-09-29T05:02:31.185Z,16.11
2023-09-29T05:04:58.045Z,16.11
2023-09-29T05:07:24.543Z,16.05
2023-09-29T05:09:51.012Z,15.98
2023-09-29T05:12:17.396Z,15.94
2023-09-29T05:14:43.794Z,15.95
2023-09-29T05:17:10.308Z,15.98
2023-09-29T05:19:36.717Z,15.89
2023-09-29T05:22:03.355Z,15.84
2023-09-29T05:24:29.736Z,15.77
2023-09-29T05:26:56.206Z,15.87
2023-09-29T05:29:22.632Z,15.89
2023-09-29T05:31:49.768Z,15.98
2023-09-29T05:34:16.152Z,15.96
2023-09-29T05:36:42.550Z,16.06
2023-09-29T05:39:09.031Z,16.00
2023-09-29T05:41:35.595Z,16.00
2023-09-29T05:44:02.202Z,16.03
2023-09-29T05:46:28.716Z,16.03
2023-09-29T05:48:55.739Z,16.08
2023-09-29T05:51:22.383Z,16.08
2023-09-29T05:53:48.884Z,16.13
2023-09-29T05:56:16.791Z,16.20
2023-09-29T05:58:43.314Z,16.14
2023-09-29T06:01:10.973Z,16.12
2023-09-29T06:03:39.006Z,16.21
2023-09-29T06:06:06.149Z,16.22
2023-09-29T06:08:38.920Z,16.22
2023-09-29T06:11:14.565Z,16.28
2023-09-29T06:13:41.714Z,16.37
2023-09-29T06:16:08.246Z,16.35
2023-09-29T06:18:35.610Z,16.36
2023-09-29T06:21:02.194Z,16.45
2023-09-29T06:23:28.682Z,16.43
2023-09-29T06:25:59.324Z,16.52
2023-09-29T06:28:26.012Z,16.54
2023-09-29T06:30:58.858Z,16.49
2023-09-29T06:33:26.653Z,16.59
2023-09-29T06:35:53.790Z,16.59
2023-09-29T06:38:20.587Z,16.61
2023-09-29T06:40:47.008Z,16.65
2023-09-29T06:43:13.474Z,16.68
2023-09-29T06:45:59.768Z,16.74
2023-09-29T06:48:27.471Z,16.80
2023-09-29T06:50:54.039Z,16.81
2023-09-29T06:53:20.772Z,16.92
2023-09-29T06:55:47.172Z,17.02
2023-09-29T06:58:13.596Z,17.03
2023-09-29T07:00:40.644Z,17.08
2023-09-29T07:03:13.619Z,17.04
2023-09-29T07:05:40.218Z,17.12
2023-09-29T07:08:07.253Z,17.15
2023-09-29T07:10:33.597Z,17.20
2023-09-29T07:13:00.099Z,17.23
2023-09-29T07:15:26.541Z,17.39
2023-09-29T07:17:53.054Z,17.41
2023-09-29T07:20:19.550Z,17.40
2023-09-29T07:22:46.102Z,17.44
2023-09-29T07:25:14.586Z,17.47
2023-09-29T07:27:40.959Z,17.47
2023-09-29T07:30:09.574Z,17.55
2023-09-29T07:32:36.232Z,17.56
2023-09-29T07:35:04.119Z,17.61
2023-09-29T07:37:30.496Z,17.84
2023-09-29T07:39:59.111Z,17.97
2023-09-29T07:42:25.589Z,17.88
2023-09-29T07:44:52.958Z,17.94
2023-09-29T07:47:19.737Z,17.94
2023-09-29T07:49:46.292Z,17.92
2023-09-29T07:52:13.065Z,17.98
2023-09-29T07:54:39.543Z,18.31
2023-09-29T07:57:06.073Z,18.63
2023-09-29T07:59:32.550Z,18.72
2023-09-29T08:01:59.676Z,18.53
2023-09-29T08:04:27.230Z,18.40
2023-09-29T08:06:53.933Z,18.38
2023-09-29T08:09:20.470Z,18.64
2023-09-29T08:11:46.972Z,18.87
2023-09-29T08:14:14.096Z,18.91
2023-09-29T08:16:40.605Z,18.87
2023-09-29T08:19:07.052Z,18.64
2023-09-29T08:21:34.200Z,18.55
2023-09-29T08:24:04.371Z,18.75
2023-09-29T08:26:32.178Z,18.71
2023-09-29T08:29:00.954Z,18.75
2023-09-29T08:31:27.543Z,18.94
2023-09-29T08:33:54.065Z,19.36
2023-09-29T08:36:20.806Z,19.62
2023-09-29T08:38:47.299Z,19.45
2023-09-29T08:41:15.926Z,19.35
2023-09-29T08:43:46.378Z,19.02
2023-09-29T08:46:20.050Z,19.72
2023-09-29T08:48:47.733Z,19.66
2023-09-29T08:51:16.765Z,20.28
2023-09-29T08:53:44.451Z,20.22
2023-09-29T08:56:16.653Z,20.33
2023-09-29T08:58:43.600Z,20.40
2023-09-29T09:01:10.224Z,20.76
2023-09-29T09:03:36.659Z,21.15
2023-09-29T09:06:15.930Z,20.37
2023-09-29T09:08:42.539Z,20.77
2023-09-29T09:11:08.933Z,21.22
2023-09-29T09:13:35.346Z,21.24
2023-09-29T09:16:01.778Z,21.55
2023-09-29T09:18:28.753Z,21.66
2023-09-29T09:20:55.464Z,21.88
2023-09-29T09:23:22.244Z,21.88
2023-09-29T09:25:48.700Z,22.07
2023-09-29T09:28:19.780Z,21.93
2023-09-29T09:30:47.453Z,22.03
2023-09-29T09:33:19.377Z,21.58
2023-09-29T09:35:45.979Z,21.83
2023-09-29T09:38:12.559Z,21.96
2023-09-29T09:40:39.894Z,21.91
2023-09-29T09:43:11.279Z,21.80
2023-09-29T09:45:40.734Z,21.85
2023-09-29T09:48:12.142Z,22.00
2023-09-29T09:50:43.145Z,22.31
2023-09-29T09:53:12.365Z,22.49
2023-09-29T09:55:42.505Z,21.85
2023-09-29T09:58:17.887Z,22.20
2023-09-29T10:00:46.675Z,22.08
2023-09-29T10:03:17.373Z,22.09
2023-09-29T10:05:47.940Z,22.40
2023-09-29T10:08:33.458Z,22.87
2023-09-29T10:11:14.087Z,22.66
2023-09-29T10:13:43.505Z,22.80
2023-09-29T10:16:21.044Z,22.82
2023-09-29T10:19:06.653Z,22.80
2023-09-29T10:21:51.488Z,22.61
2023-09-29T10:24:26.549Z,23.02
2023-09-29T10:26:53.103Z,22.88
2023-09-29T10:29:20.501Z,22.85
2023-09-29T10:31:47.152Z,22.78
2023-09-29T10:34:22.954Z,22.86
2023-09-29T10:36:56.808Z,22.77
2023-09-29T10:39:28.022Z,22.86
2023-09-29T10:42:14.886Z,22.83
2023-09-29T10:44:58.558Z,23.14
2023-09-29T10:47:37.247Z,23.88
2023-09-29T10:50:04.711Z,23.81
2023-09-29T10:52:31.463Z,24.45
2023-09-29T10:54:59.959Z,24.17
2023-09-29T10:57:27.881Z,24.49
2023-09-29T11:00:00.689Z,24.09
2023-09-29T11:02:32.073Z,23.92
2023-09-29T11:05:01.391Z,24.19
2023-09-29T11:07:30.743Z,24.18
2023-09-29T11:10:00.479Z,24.48
2023-09-29T11:12:29.154Z,24.41
2023-09-29T11:15:09.250Z,24.58
2023-09-29T11:17:49.448Z,24.53
2023-09-29T11:20:17.799Z,24.44
2023-09-29T11:22:46.679Z,24.56
2023-09-29T11:25:20.938Z,25.15
2023-09-29T11:27:53.688Z,25.36
2023-09-29T11:30:26.161Z,25.57
2023-09-29T11:32:53.868Z,25.95
2023-09-29T11:35:22.420Z,25.64
2023-09-29T11:37:48.867Z,25.60
2023-09-29T11:40:17.487Z,25.78
2023-09-29T11:42:46.301Z,25.67
2023-09-29T11:45:12.995Z,25.03
2023-09-29T11:47:43.063Z,24.79
2023-09-29T11:50:10.369Z,24.73
2023-09-29T11:52:40.590Z,24.98
2023-09-29T11:55:12.518Z,25.53
2023-09-29T11:57:41.777Z,25.94
2023-09-29T12:00:12.303Z,25.64
2023-09-29T12:02:39.771Z,25.75
2023-09-29T12:05:07.276Z,25.44
2023-09-29T12:07:34.314Z,25.96
2023-09-29T12:10:00.817Z,25.13
2023-09-29T12:12:28.010Z,25.24
2023-09-29T12:14:54.436Z,25.34
2023-09-29T12:17:21.304Z,25.04
2023-09-29T12:19:48.139Z,25.11
2023-09-29T12:22:15.139Z,24.83
2023-09-29T12:24:41.610Z,24.52
2023-09-29T12:27:09.337Z,24.55
2023-09-29T12:29:36.211Z,24.64
2023-09-29T12:32:03.164Z,24.58
2023-09-29T12:34:33.767Z,24.44
2023-09-29T12:37:00.799Z,24.19
2023-09-29T12:39:27.421Z,24.21
2023-09-29T12:41:54.327Z,24.15
2023-09-29T12:44:20.740Z,23.93
2023-09-29T12:46:47.120Z,23.65
2023-09-29T12:49:13.509Z,23.46
2023-09-29T12:51:53.312Z,23.34
2023-09-29T12:54:26.450Z,23.20
2023-09-29T12:57:01.442Z,23.11
2023-09-29T12:59:30.727Z,22.85
2023-09-29T13:01:57.499Z,22.72
2023-09-29T13:04:27.507Z,22.60
2023-09-29T13:06:54.022Z,22.47
2023-09-29T13:09:21.993Z,22.49
2023-09-29T13:11:51.783Z,22.39
2023-09-29T13:14:18.495Z,22.66
2023-09-29T13:16:45.093Z,22.26
2023-09-29T13:19:11.594Z,22.40
2023-09-29T13:21:39.187Z,22.34
2023-09-29T13:24:05.752Z,22.26
2023-09-29T13:26:32.223Z,22.29
2023-09-29T13:28:58.722Z,22.23
2023-09-29T13:31:25.181Z,22.20
2023-09-29T13:33:54.611Z,22.47
2023-09-29T13:36:21.379Z,22.48
2023-09-29T13:38:49.229Z,22.79
2023-09-29T13:41:15.622Z,22.69
2023-09-29T13:43:43.328Z,22.48
2023-09-29T13:46:10.451Z,22.37
2023-09-29T13:48:37.428Z,22.30
2023-09-29T13:51:07.378Z,22.19
2023-09-29T13:53:35.146Z,22.49
2023-09-29T13:56:06.104Z,22.51
2023-09-29T13:58:32.526Z,22.49
2023-09-29T14:00:59.021Z,22.29
2023-09-29T14:03:26.089Z,22.40
2023-09-29T14:05:52.876Z,22.37
2023-09-29T14:08:20.238Z,22.11
2023-09-29T14:10:47.755Z,21.96
2023-09-29T14:13:14.380Z,22.05
2023-09-29T14:15:40.808Z,22.12
2023-09-29T14:18:07.336Z,22.06
2023-09-29T14:20:37.264Z,22.12
2023-09-29T14:23:04.614Z,22.14
2023-09-29T14:25:31.247Z,22.32
2023-09-29T14:27:57.672Z,22.35
2023-09-29T14:30:25.478Z,22.38
2023-09-29T14:32:54.062Z,22.56
2023-09-29T14:35:22.581Z,22.19
2023-09-29T14:37:49.177Z,22.45
2023-09-29T14:40:15.655Z,22.44
2023-09-29T14:42:42.038Z,22.51
2023-09-29T14:45:12.161Z,22.59
2023-09-29T14:47:42.473Z,22.78
2023-09-29T14:50:09.295Z,22.60
2023-09-29T14:52:35.759Z,22.65
2023-09-29T14:55:07.138Z,22.14
2023-09-29T14:57:33.960Z,22.05
2023-09-29T15:00:01.627Z,22.13
2023-09-29T15:02:28.124Z,21.96
2023-09-29T15:04:57.128Z,21.86
2023-09-29T15:07:23.891Z,21.82
2023-09-29T15:09:50.483Z,21.93
2023-09-29T15:12:17.671Z,21.98
2023-09-29T15:14:44.710Z,21.99
2023-09-29T15:17:11.467Z,22.01
2023-09-29T15:19:43.593Z,21.78
2023-09-29T15:22:10.926Z,21.84
2023-09-29T15:24:39.163Z,21.82
2023-09-29T15:27:07.332Z,21.79
2023-09-29T15:29:33.802Z,21.78
2023-09-29T15:32:00.436Z,21.67
2023-09-29T15:34:26.960Z,21.80
2023-09-29T15:36:53.569Z,21.58
2023-09-29T15:39:20.285Z,21.54
2023-09-29T15:41:46.804Z,21.65
2023-09-29T15:44:13.167Z,21.55
2023-09-29T15:46:39.573Z,21.57
2023-09-29T15:49:06.357Z,21.49
2023-09-29T15:51:32.763Z,21.49
2023-09-29T15:54:00.111Z,21.38
2023-09-29T15:56:26.805Z,21.37
2023-09-29T15:58:53.308Z,21.50
2023-09-29T16:01:19.979Z,21.34
2023-09-29T16:03:46.660Z,21.45
2023-09-29T16:06:13.240Z,21.34
2023-09-29T16:08:39.722Z,21.42
2023-09-29T16:11:06.104Z,21.48
2023-09-29T16:13:34.846Z,21.47
2023-09-29T16:16:05.370Z,21.51
2023-09-29T16:18:32.106Z,21.55
2023-09-29T16:20:58.628Z,21.51
2023-09-29T16:23:25.566Z,21.54
2023-09-29T16:25:53.388Z,21.48
2023-09-29T16:28:20.788Z,21.50
2023-09-29T16:30:47.213Z,21.48
2023-09-29T16:33:13.789Z,21.41
2023-09-29T16:35:40.651Z,21.36
2023-09-29T16:38:10.078Z,21.26
2023-09-29T16:40:36.508Z,21.26
2023-09-29T16:43:02.966Z,21.22
2023-09-29T16:45:30.368Z,21.18
2023-09-29T16:47:56.967Z,21.15
2023-09-29T16:50:23.787Z,21.09
2023-09-29T16:52:50.268Z,21.02
2023-09-29T16:55:16.776Z,20.99
2023-09-29T16:57:43.260Z,20.97
2023-09-29T17:00:10.267Z,20.92
2023-09-29T17:02:36.718Z,20.88
2023-09-29T17:05:03.930Z,20.80
2023-09-29T17:07:30.396Z,20.71
2023-09-29T17:09:56.885Z,20.70
2023-09-29T17:12:23.484Z,20.64
2023-09-29T17:14:50.105Z,20.64
2023-09-29T17:17:16.507Z,20.67
2023-09-29T17:19:44.945Z,20.65
2023-09-29T17:22:11.403Z,20.58
2023-09-29T17:24:37.877Z,20.57
2023-09-29T17:27:04.437Z,20.52
2023-09-29T17:29:30.952Z,20.51
2023-09-29T17:31:57.491Z,20.44
2023-09-29T17:34:24.435Z,20.40
2023-09-29T17:36:50.880Z,20.38
2023-09-29T17:39:18.041Z,20.36
2023-09-29T17:41:44.452Z,20.32
2023-09-29T17:44:14.835Z,20.25
2023-09-29T17:46:41.265Z,20.21
2023-09-29T17:49:08.023Z,20.17
2023-09-29T17:51:34.654Z,20.11
2023-09-29T17:54:01.230Z,20.06
2023-09-29T17:56:27.982Z,19.99
2023-09-29T17:58:54.361Z,19.97
2023-09-29T18:01:20.844Z,19.97
2023-09-29T18:03:47.685Z,19.92
2023-09-29T18:06:14.495Z,19.81
2023-09-29T18:08:41.787Z,19.73
2023-09-29T18:11:08.664Z,19.66
2023-09-29T18:13:35.236Z,19.60
2023-09-29T18:16:01.752Z,19.62
2023-09-29T18:18:28.463Z,19.52
2023-09-29T18:21:00.864Z,19.50
2023-09-29T18:23:29.446Z,19.50
2023-09-29T18:25:55.917Z,19.48
2023-09-29T18:28:22.324Z,19.40
2023-09-29T18:30:48.810Z,19.42
2023-09-29T18:33:15.270Z,19.40
2023-09-29T18:35:41.839Z,19.52
2023-09-29T18:38:08.475Z,19.37
2023-09-29T18:40:34.903Z,19.41
2023-09-29T18:43:01.810Z,19.40
2023-09-29T18:45:30.675Z,19.48
2023-09-29T18:47:57.204Z,19.57
2023-09-29T18:50:24.080Z,19.60
2023-09-29T18:52:50.447Z,19.70
2023-09-29T18:55:16.969Z,19.67
2023-09-29T18:57:43.526Z,19.68
2023-09-29T19:00:12.206Z,19.68
2023-09-29T19:02:38.731Z,19.69
2023-09-29T19:05:06.077Z,19.62
2023-09-29T19:07:32.628Z,19.59
2023-09-29T19:09:59.253Z,19.55
2023-09-29T19:12:25.780Z,19.58
2023-09-29T19:14:52.385Z,19.57
2023-09-29T19:17:19.072Z,19.49
2023-09-29T19:19:45.740Z,19.49
2023-09-29T19:22:12.368Z,19.45
2023-09-29T19:24:38.984Z,19.39
2023-09-29T19:27:05.704Z,19.47
2023-09-29T19:29:32.499Z,19.47
2023-09-29T19:31:58.959Z,19.45
2023-09-29T19:34:25.468Z,19.35
2023-09-29T19:36:51.872Z,18.79
2023-09-29T19:39:18.383Z,18.21
2023-09-29T19:41:44.936Z,17.91
2023-09-29T19:44:11.789Z,17.51
2023-09-29T19:46:38.843Z,17.36
2023-09-29T19:49:05.662Z,17.09
2023-09-29T19:51:32.389Z,17.17
2023-09-29T19:53:59.703Z,17.03
2023-09-29T19:56:33.896Z,16.92
2023-09-29T19:59:00.850Z,17.02
2023-09-29T20:01:27.626Z,16.88
2023-09-29T20:03:54.446Z,16.80
2023-09-29T20:06:21.187Z,16.78
2023-09-29T20:08:50.857Z,16.77
2023-09-29T20:11:17.860Z,16.76
2023-09-29T20:13:44.455Z,16.73
2023-09-29T20:16:11.033Z,16.63
2023-09-29T20:18:37.695Z,16.74
2023-09-29T20:21:04.336Z,16.72
2023-09-29T20:23:30.826Z,16.61
2023-09-29T20:25:58.993Z,16.50
2023-09-29T20:28:26.454Z,16.55
2023-09-29T20:30:53.095Z,16.50
2023-09-29T20:33:19.418Z,16.55
2023-09-29T20:35:45.873Z,16.64
2023-09-29T20:38:12.252Z,16.48
2023-09-29T20:40:40.402Z,16.54
2023-09-29T20:43:07.054Z,16.59
2023-09-29T20:45:33.518Z,16.59
2023-09-29T20:48:00.212Z,16.58
2023-09-29T20:50:26.865Z,16.45
2023-09-29T20:52:53.270Z,16.50
2023-09-29T20:55:19.807Z,16.50
2023-09-29T20:57:46.178Z,16.44
2023-09-29T21:00:13.350Z,16.39
2023-09-29T21:02:41.329Z,16.38
2023-09-29T21:05:08.117Z,16.45
2023-09-29T21:07:34.562Z,16.48
2023-09-29T21:10:01.055Z,16.49
2023-09-29T21:12:27.498Z,16.42
2023-09-29T21:14:53.948Z,16.40
2023-09-29T21:17:20.604Z,16.41
2023-09-29T21:19:47.063Z,16.44
2023-09-29T21:22:15.246Z,16.45
2023-09-29T21:24:41.805Z,16.42
2023-09-29T21:27:08.401Z,16.48
2023-09-29T21:29:34.872Z,16.34
2023-09-29T21:32:01.257Z,16.41
2023-09-29T21:34:27.629Z,16.43
2023-09-29T21:36:54.368Z,16.42
2023-09-29T21:39:20.805Z,16.42
2023-09-29T21:41:47.582Z,16.34
2023-09-29T21:44:14.984Z,16.33
2023-09-29T21:46:41.975Z,16.40
2023-09-29T21:49:09.269Z,16.37
2023-09-29T21:51:36.878Z,16.36
2023-09-29T21:54:03.882Z,16.33
2023-09-29T21:56:30.487Z,16.38
2023-09-29T21:59:00.036Z,16.32
2023-09-29T22:01:27.962Z,16.33
2023-09-29T22:03:54.884Z,16.41
2023-09-29T22:06:21.497Z,16.32
2023-09-29T22:08:48.477Z,16.30
2023-09-29T22:11:15.440Z,16.33
2023-09-29T22:13:42.456Z,16.34
2023-09-29T22:16:09.560Z,16.34
2023-09-29T22:18:36.140Z,16.33
2023-09-29T22:21:02.714Z,16.28
2023-09-29T22:23:30.034Z,16.27
2023-09-29T22:25:56.585Z,16.24
2023-09-29T22:28:22.976Z,16.22
2023-09-29T22:30:49.336Z,16.20
2023-09-29T22:33:16.797Z,16.20
2023-09-29T22:35:43.352Z,16.24
2023-09-29T22:38:10.724Z,16.21
2023-09-29T22:40:37.146Z,16.18
2023-09-29T22:43:03.933Z,16.22
2023-09-29T22:45:30.505Z,16.16
2023-09-29T22:47:57.172Z,16.20
2023-09-29T22:50:23.668Z,16.14
2023-09-29T22:52:50.106Z,16.24
2023-09-29T22:55:16.667Z,16.22
2023-09-29T22:57:43.778Z,16.22
2023-09-29T23:00:13.665Z,16.15
2023-09-29T23:02:41.564Z,16.09
2023-09-29T23:05:08.473Z,16.14
2023-09-29T23:07:35.566Z,16.02
2023-09-29T23:10:03.627Z,16.07
2023-09-29T23:12:30.482Z,16.21
2023-09-29T23:14:57.308Z,16.05
2023-09-29T23:17:23.912Z,16.01
2023-09-29T23:19:50.386Z,15.96
2023-09-29T23:22:17.069Z,15.98
2023-09-29T23:24:43.594Z,16.00
2023-09-29T23:27:10.050Z,15.99
2023-09-29T23:29:38.975Z,16.11
2023-09-29T23:32:05.726Z,15.94
2023-09-29T23:34:32.201Z,15.83
2023-09-29T23:36:58.581Z,15.72
2023-09-29T23:39:25.081Z,15.79
2023-09-29T23:41:51.522Z,15.83
2023-09-29T23:44:18.349Z,15.72
2023-09-29T23:46:44.810Z,15.73
2023-09-29T23:49:11.799Z,15.77
2023-09-29T23:51:38.403Z,15.72
2023-09-29T23:54:05.110Z,15.72
2023-09-29T23:56:31.614Z,15.64
2023-09-29T23:58:59.785Z,15.72
